パース の空港の天気 - METARとTAF

パース空港 ( YPPH / PER ) - オーストラリア 西オーストラリア州パース
飛行場実況気象(Metar)
観測時間01/23 12:00 AWST (01/23 04:00 UTC)
風向・風速南南東 4m/s
視程10km以上
天気現象
なし
気温31℃
湿度43%
気圧1008hPa
METARYPPH 230400Z 15008KT CAVOK 31/17 Q1008 NOSIG
過去の天気等 Google飛行場航空写真 Wunderground天気予報

過去48時間のMETAR

飛行場予報(TAF)
発表時間: 1/23 07:08 AWST (1/22 23:08 UTC)
予報対象時間: 23日8時 AWST ~ 24日14時 AWST
風向・風速東南東 5m/s
視程10km以上
なし
23日14時 AWST から
風向・風速南西 7m/s
視程10km以上
なし
23日22時 AWST から
風向・風速東南東 7m/s
視程10km以上
なし
24日2時 AWST から
風向・風速東 7m/s 瞬間風速 12m/s
視程10km以上
なし
24日8時 AWST から
風向・風速東南東 5m/s
視程10km以上
なし
24日13時 AWST から
風向・風速南南西 6m/s
視程10km以上
なし
TAF YPPH 222308Z 2300/2406 12010KT CAVOK
FM230600 22014KT CAVOK
FM231400 11014KT CAVOK
FM231800 10014G24KT CAVOK
FM240000 12010KT CAVOK
FM240500 20012KT CAVOK